sensor_id;sensor_type;location;lat;lon;timestamp;P1;durP1;ratioP1;P2;durP2;ratioP2
846;SDS011;410;48.954;9.474;2023-05-10T00:01:06;2.40;;;1.83;;
846;SDS011;410;48.954;9.474;2023-05-10T00:03:09;2.10;;;1.77;;
846;SDS011;410;48.954;9.474;2023-05-10T00:05:13;2.07;;;1.53;;
846;SDS011;410;48.954;9.474;2023-05-10T00:07:16;2.17;;;1.63;;
846;SDS011;410;48.954;9.474;2023-05-10T00:09:19;1.97;;;1.40;;
846;SDS011;410;48.954;9.474;2023-05-10T00:11:22;1.87;;;1.30;;
846;SDS011;410;48.954;9.474;2023-05-10T00:13:26;1.60;;;1.20;;
846;SDS011;410;48.954;9.474;2023-05-10T00:15:29;2.00;;;1.47;;
846;SDS011;410;48.954;9.474;2023-05-10T00:17:32;2.63;;;1.40;;
846;SDS011;410;48.954;9.474;2023-05-10T00:19:36;1.60;;;1.23;;
846;SDS011;410;48.954;9.474;2023-05-10T00:21:40;2.30;;;1.10;;
846;SDS011;410;48.954;9.474;2023-05-10T00:23:44;1.77;;;1.20;;
846;SDS011;410;48.954;9.474;2023-05-10T00:25:47;1.67;;;1.30;;
846;SDS011;410;48.954;9.474;2023-05-10T00:27:50;2.73;;;1.53;;
846;SDS011;410;48.954;9.474;2023-05-10T00:29:53;2.50;;;1.33;;
846;SDS011;410;48.954;9.474;2023-05-10T00:31:56;1.90;;;1.30;;
846;SDS011;410;48.954;9.474;2023-05-10T00:34:00;1.87;;;1.30;;
846;SDS011;410;48.954;9.474;2023-05-10T00:36:03;1.47;;;1.07;;
846;SDS011;410;48.954;9.474;2023-05-10T00:38:10;2.40;;;1.03;;
846;SDS011;410;48.954;9.474;2023-05-10T00:40:13;1.70;;;0.80;;
846;SDS011;410;48.954;9.474;2023-05-10T00:42:21;1.27;;;0.70;;
846;SDS011;410;48.954;9.474;2023-05-10T00:44:27;1.67;;;0.90;;
846;SDS011;410;48.954;9.474;2023-05-10T00:46:30;4.23;;;1.00;;
846;SDS011;410;48.954;9.474;2023-05-10T00:48:33;1.70;;;1.10;;
846;SDS011;410;48.954;9.474;2023-05-10T00:50:37;1.40;;;0.80;;
846;SDS011;410;48.954;9.474;2023-05-10T00:52:41;1.20;;;0.70;;
846;SDS011;410;48.954;9.474;2023-05-10T00:54:46;1.47;;;0.80;;
846;SDS011;410;48.954;9.474;2023-05-10T00:56:51;2.17;;;0.90;;
846;SDS011;410;48.954;9.474;2023-05-10T00:58:54;1.30;;;1.00;;
846;SDS011;410;48.954;9.474;2023-05-10T01:00:58;2.30;;;0.90;;
846;SDS011;410;48.954;9.474;2023-05-10T01:03:02;1.50;;;0.80;;
846;SDS011;410;48.954;9.474;2023-05-10T01:05:05;1.57;;;0.80;;
846;SDS011;410;48.954;9.474;2023-05-10T01:07:09;1.47;;;0.80;;
846;SDS011;410;48.954;9.474;2023-05-10T01:09:13;1.30;;;0.80;;
846;SDS011;410;48.954;9.474;2023-05-10T01:11:17;1.30;;;0.80;;
846;SDS011;410;48.954;9.474;2023-05-10T01:13:23;1.50;;;0.70;;
846;SDS011;410;48.954;9.474;2023-05-10T01:15:33;1.67;;;1.00;;
846;SDS011;410;48.954;9.474;2023-05-10T01:17:37;3.77;;;1.00;;
846;SDS011;410;48.954;9.474;2023-05-10T01:19:41;1.43;;;1.00;;
846;SDS011;410;48.954;9.474;2023-05-10T01:21:46;1.30;;;0.70;;
846;SDS011;410;48.954;9.474;2023-05-10T01:26:34;1.60;;;0.90;;
846;SDS011;410;48.954;9.474;2023-05-10T01:28:52;1.60;;;0.90;;
846;SDS011;410;48.954;9.474;2023-05-10T01:31:03;2.20;;;0.90;;
846;SDS011;410;48.954;9.474;2023-05-10T01:33:21;1.50;;;0.90;;
846;SDS011;410;48.954;9.474;2023-05-10T01:35:29;1.40;;;0.93;;
846;SDS011;410;48.954;9.474;2023-05-10T01:37:37;1.50;;;1.00;;
846;SDS011;410;48.954;9.474;2023-05-10T01:39:45;1.40;;;0.80;;
846;SDS011;410;48.954;9.474;2023-05-10T01:41:52;1.50;;;1.00;;
846;SDS011;410;48.954;9.474;2023-05-10T01:44:01;1.60;;;1.13;;
846;SDS011;410;48.954;9.474;2023-05-10T01:46:09;1.70;;;1.10;;
846;SDS011;410;48.954;9.474;2023-05-10T01:48:15;1.63;;;1.20;;
846;SDS011;410;48.954;9.474;2023-05-10T01:50:22;1.97;;;1.60;;
846;SDS011;410;48.954;9.474;2023-05-10T01:52:30;3.30;;;1.77;;
846;SDS011;410;48.954;9.474;2023-05-10T01:54:35;2.17;;;1.30;;
846;SDS011;410;48.954;9.474;2023-05-10T01:56:42;2.27;;;1.47;;
846;SDS011;410;48.954;9.474;2023-05-10T01:58:46;1.93;;;1.30;;
846;SDS011;410;48.954;9.474;2023-05-10T02:00:50;1.73;;;1.40;;
846;SDS011;410;48.954;9.474;2023-05-10T02:02:54;1.60;;;1.30;;
846;SDS011;410;48.954;9.474;2023-05-10T02:04:58;2.10;;;1.50;;
846;SDS011;410;48.954;9.474;2023-05-10T02:07:03;2.10;;;1.60;;
846;SDS011;410;48.954;9.474;2023-05-10T02:09:07;2.10;;;1.50;;
846;SDS011;410;48.954;9.474;2023-05-10T02:11:12;3.63;;;1.50;;
846;SDS011;410;48.954;9.474;2023-05-10T02:13:16;1.90;;;1.47;;
846;SDS011;410;48.954;9.474;2023-05-10T02:15:22;1.70;;;1.40;;
846;SDS011;410;48.954;9.474;2023-05-10T02:17:26;2.10;;;1.73;;
846;SDS011;410;48.954;9.474;2023-05-10T02:19:30;3.63;;;1.67;;
846;SDS011;410;48.954;9.474;2023-05-10T02:21:35;2.10;;;1.80;;
846;SDS011;410;48.954;9.474;2023-05-10T02:23:40;2.47;;;1.80;;
846;SDS011;410;48.954;9.474;2023-05-10T02:25:43;1.90;;;1.50;;
846;SDS011;410;48.954;9.474;2023-05-10T02:27:48;3.20;;;2.10;;
846;SDS011;410;48.954;9.474;2023-05-10T02:29:51;2.10;;;1.50;;
846;SDS011;410;48.954;9.474;2023-05-10T02:31:56;2.90;;;1.97;;
846;SDS011;410;48.954;9.474;2023-05-10T02:34:00;4.40;;;1.90;;
846;SDS011;410;48.954;9.474;2023-05-10T02:36:04;2.67;;;1.97;;
846;SDS011;410;48.954;9.474;2023-05-10T02:38:13;3.10;;;2.00;;
846;SDS011;410;48.954;9.474;2023-05-10T02:40:18;3.53;;;2.10;;
846;SDS011;410;48.954;9.474;2023-05-10T02:42:23;2.30;;;1.80;;
846;SDS011;410;48.954;9.474;2023-05-10T02:44:28;2.50;;;1.90;;
846;SDS011;410;48.954;9.474;2023-05-10T02:46:32;3.60;;;2.30;;
846;SDS011;410;48.954;9.474;2023-05-10T02:48:36;2.53;;;2.03;;
846;SDS011;410;48.954;9.474;2023-05-10T02:50:40;3.13;;;1.90;;
846;SDS011;410;48.954;9.474;2023-05-10T02:52:46;2.87;;;2.17;;
846;SDS011;410;48.954;9.474;2023-05-10T02:54:50;2.20;;;1.80;;
846;SDS011;410;48.954;9.474;2023-05-10T02:56:57;3.43;;;2.03;;
846;SDS011;410;48.954;9.474;2023-05-10T02:59:02;3.97;;;2.40;;
846;SDS011;410;48.954;9.474;2023-05-10T03:01:05;3.10;;;2.00;;
846;SDS011;410;48.954;9.474;2023-05-10T03:03:09;2.63;;;2.10;;
846;SDS011;410;48.954;9.474;2023-05-10T03:05:12;3.30;;;2.40;;
846;SDS011;410;48.954;9.474;2023-05-10T03:07:16;4.30;;;2.10;;
846;SDS011;410;48.954;9.474;2023-05-10T03:09:21;2.50;;;1.90;;
846;SDS011;410;48.954;9.474;2023-05-10T03:11:28;3.20;;;2.60;;
846;SDS011;410;48.954;9.474;2023-05-10T03:13:42;2.60;;;2.00;;
846;SDS011;410;48.954;9.474;2023-05-10T03:15:51;3.00;;;2.30;;
846;SDS011;410;48.954;9.474;2023-05-10T03:18:01;2.60;;;2.37;;
846;SDS011;410;48.954;9.474;2023-05-10T03:20:06;2.67;;;2.27;;
846;SDS011;410;48.954;9.474;2023-05-10T03:22:13;5.13;;;1.93;;
846;SDS011;410;48.954;9.474;2023-05-10T03:24:23;2.27;;;1.80;;
846;SDS011;410;48.954;9.474;2023-05-10T03:26:26;3.23;;;2.50;;
846;SDS011;410;48.954;9.474;2023-05-10T03:28:48;3.20;;;2.40;;
846;SDS011;410;48.954;9.474;2023-05-10T03:30:51;2.50;;;2.30;;
846;SDS011;410;48.954;9.474;2023-05-10T03:32:55;2.80;;;2.40;;
846;SDS011;410;48.954;9.474;2023-05-10T03:34:59;3.10;;;2.73;;
846;SDS011;410;48.954;9.474;2023-05-10T03:37:02;4.90;;;2.70;;
846;SDS011;410;48.954;9.474;2023-05-10T03:39:06;11.30;;;2.80;;
846;SDS011;410;48.954;9.474;2023-05-10T03:41:09;4.00;;;2.27;;
846;SDS011;410;48.954;9.474;2023-05-10T03:43:12;2.47;;;2.27;;
846;SDS011;410;48.954;9.474;2023-05-10T03:45:17;2.53;;;2.23;;
846;SDS011;410;48.954;9.474;2023-05-10T03:47:21;2.40;;;2.20;;
846;SDS011;410;48.954;9.474;2023-05-10T03:49:24;2.90;;;2.40;;
846;SDS011;410;48.954;9.474;2023-05-10T03:51:27;5.40;;;2.40;;
846;SDS011;410;48.954;9.474;2023-05-10T03:53:30;3.07;;;2.47;;
846;SDS011;410;48.954;9.474;2023-05-10T03:55:33;2.77;;;2.23;;
846;SDS011;410;48.954;9.474;2023-05-10T03:57:37;3.40;;;3.10;;
846;SDS011;410;48.954;9.474;2023-05-10T03:59:41;4.00;;;2.47;;
846;SDS011;410;48.954;9.474;2023-05-10T04:01:45;3.83;;;2.37;;
846;SDS011;410;48.954;9.474;2023-05-10T04:03:49;3.60;;;2.60;;
846;SDS011;410;48.954;9.474;2023-05-10T04:05:58;2.60;;;2.27;;
846;SDS011;410;48.954;9.474;2023-05-10T04:08:02;3.17;;;2.30;;
846;SDS011;410;48.954;9.474;2023-05-10T04:10:05;2.73;;;2.40;;
846;SDS011;410;48.954;9.474;2023-05-10T04:12:09;3.13;;;2.17;;
846;SDS011;410;48.954;9.474;2023-05-10T04:14:12;2.80;;;2.50;;
846;SDS011;410;48.954;9.474;2023-05-10T04:16:15;3.00;;;2.53;;
846;SDS011;410;48.954;9.474;2023-05-10T04:18:20;4.27;;;2.63;;
846;SDS011;410;48.954;9.474;2023-05-10T04:20:23;3.47;;;2.93;;
846;SDS011;410;48.954;9.474;2023-05-10T04:22:26;2.97;;;2.60;;
846;SDS011;410;48.954;9.474;2023-05-10T04:24:30;4.03;;;2.73;;
846;SDS011;410;48.954;9.474;2023-05-10T04:26:34;3.40;;;2.57;;
846;SDS011;410;48.954;9.474;2023-05-10T04:28:37;3.60;;;3.20;;
846;SDS011;410;48.954;9.474;2023-05-10T04:30:40;3.50;;;3.10;;
846;SDS011;410;48.954;9.474;2023-05-10T04:32:44;4.53;;;3.27;;
846;SDS011;410;48.954;9.474;2023-05-10T04:34:49;4.47;;;3.40;;
846;SDS011;410;48.954;9.474;2023-05-10T04:36:52;4.10;;;3.17;;
846;SDS011;410;48.954;9.474;2023-05-10T04:38:55;5.50;;;3.60;;
846;SDS011;410;48.954;9.474;2023-05-10T04:41:05;4.93;;;3.63;;
846;SDS011;410;48.954;9.474;2023-05-10T04:43:08;4.47;;;3.30;;
846;SDS011;410;48.954;9.474;2023-05-10T04:45:11;3.60;;;3.30;;
846;SDS011;410;48.954;9.474;2023-05-10T04:47:16;4.20;;;3.50;;
846;SDS011;410;48.954;9.474;2023-05-10T04:49:19;5.20;;;3.90;;
846;SDS011;410;48.954;9.474;2023-05-10T04:51:23;4.60;;;4.00;;
846;SDS011;410;48.954;9.474;2023-05-10T04:53:26;4.47;;;3.47;;
846;SDS011;410;48.954;9.474;2023-05-10T04:55:29;5.03;;;4.10;;
846;SDS011;410;48.954;9.474;2023-05-10T04:57:33;5.13;;;3.80;;
846;SDS011;410;48.954;9.474;2023-05-10T04:59:36;4.20;;;3.80;;
846;SDS011;410;48.954;9.474;2023-05-10T05:01:39;4.33;;;3.93;;
846;SDS011;410;48.954;9.474;2023-05-10T05:03:42;4.60;;;3.90;;
846;SDS011;410;48.954;9.474;2023-05-10T05:05:45;7.70;;;4.30;;
846;SDS011;410;48.954;9.474;2023-05-10T05:07:50;3.67;;;3.27;;
846;SDS011;410;48.954;9.474;2023-05-10T05:09:53;4.80;;;4.07;;
846;SDS011;410;48.954;9.474;2023-05-10T05:11:56;5.83;;;4.20;;
846;SDS011;410;48.954;9.474;2023-05-10T05:13:59;5.43;;;4.33;;
846;SDS011;410;48.954;9.474;2023-05-10T05:16:03;4.40;;;3.70;;
846;SDS011;410;48.954;9.474;2023-05-10T05:18:07;4.17;;;3.63;;
846;SDS011;410;48.954;9.474;2023-05-10T05:20:10;6.10;;;4.00;;
846;SDS011;410;48.954;9.474;2023-05-10T05:22:14;4.93;;;3.70;;
846;SDS011;410;48.954;9.474;2023-05-10T05:24:21;4.37;;;3.93;;
846;SDS011;410;48.954;9.474;2023-05-10T05:26:24;4.67;;;3.57;;
846;SDS011;410;48.954;9.474;2023-05-10T05:28:28;4.80;;;3.80;;
846;SDS011;410;48.954;9.474;2023-05-10T05:30:34;9.33;;;4.43;;
846;SDS011;410;48.954;9.474;2023-05-10T05:32:37;4.70;;;3.53;;
846;SDS011;410;48.954;9.474;2023-05-10T05:34:40;4.73;;;3.83;;
846;SDS011;410;48.954;9.474;2023-05-10T05:36:43;4.87;;;4.13;;
846;SDS011;410;48.954;9.474;2023-05-10T05:38:46;4.97;;;3.73;;
846;SDS011;410;48.954;9.474;2023-05-10T05:40:51;5.53;;;4.10;;
846;SDS011;410;48.954;9.474;2023-05-10T05:42:54;4.23;;;3.83;;
846;SDS011;410;48.954;9.474;2023-05-10T05:44:57;4.20;;;3.53;;
846;SDS011;410;48.954;9.474;2023-05-10T05:47:00;5.57;;;3.80;;
846;SDS011;410;48.954;9.474;2023-05-10T05:49:03;4.40;;;4.00;;
846;SDS011;410;48.954;9.474;2023-05-10T05:51:06;3.90;;;3.53;;
846;SDS011;410;48.954;9.474;2023-05-10T05:53:09;5.07;;;4.50;;
846;SDS011;410;48.954;9.474;2023-05-10T05:55:13;5.93;;;4.60;;
846;SDS011;410;48.954;9.474;2023-05-10T05:57:17;5.63;;;4.07;;
846;SDS011;410;48.954;9.474;2023-05-10T05:59:21;5.00;;;4.50;;
846;SDS011;410;48.954;9.474;2023-05-10T06:01:24;5.10;;;4.40;;
846;SDS011;410;48.954;9.474;2023-05-10T06:03:27;8.33;;;7.43;;
846;SDS011;410;48.954;9.474;2023-05-10T06:05:30;5.50;;;4.90;;
846;SDS011;410;48.954;9.474;2023-05-10T06:07:33;4.73;;;4.23;;
846;SDS011;410;48.954;9.474;2023-05-10T06:09:36;5.53;;;4.77;;
846;SDS011;410;48.954;9.474;2023-05-10T06:11:39;5.20;;;4.70;;
846;SDS011;410;48.954;9.474;2023-05-10T06:13:43;5.87;;;4.53;;
846;SDS011;410;48.954;9.474;2023-05-10T06:15:47;4.93;;;4.40;;
846;SDS011;410;48.954;9.474;2023-05-10T06:17:50;5.20;;;4.50;;
846;SDS011;410;48.954;9.474;2023-05-10T06:19:53;8.13;;;4.60;;
846;SDS011;410;48.954;9.474;2023-05-10T06:21:56;4.73;;;4.23;;
846;SDS011;410;48.954;9.474;2023-05-10T06:23:59;5.07;;;4.20;;
846;SDS011;410;48.954;9.474;2023-05-10T06:26:03;4.57;;;4.07;;
846;SDS011;410;48.954;9.474;2023-05-10T06:28:06;5.83;;;4.73;;
846;SDS011;410;48.954;9.474;2023-05-10T06:30:10;7.43;;;5.23;;
846;SDS011;410;48.954;9.474;2023-05-10T06:32:16;6.60;;;5.90;;
846;SDS011;410;48.954;9.474;2023-05-10T06:34:19;5.10;;;4.60;;
846;SDS011;410;48.954;9.474;2023-05-10T06:36:22;5.90;;;4.80;;
846;SDS011;410;48.954;9.474;2023-05-10T06:38:26;5.47;;;4.77;;
846;SDS011;410;48.954;9.474;2023-05-10T06:40:29;5.07;;;4.57;;
846;SDS011;410;48.954;9.474;2023-05-10T06:42:32;5.13;;;4.30;;
846;SDS011;410;48.954;9.474;2023-05-10T06:44:35;7.63;;;5.33;;
846;SDS011;410;48.954;9.474;2023-05-10T06:46:40;5.63;;;4.60;;
846;SDS011;410;48.954;9.474;2023-05-10T06:48:44;5.93;;;4.83;;
846;SDS011;410;48.954;9.474;2023-05-10T06:50:47;6.13;;;5.20;;
846;SDS011;410;48.954;9.474;2023-05-10T06:52:50;5.77;;;5.17;;
846;SDS011;410;48.954;9.474;2023-05-10T06:54:53;4.90;;;4.30;;
846;SDS011;410;48.954;9.474;2023-05-10T06:56:56;6.47;;;4.67;;
846;SDS011;410;48.954;9.474;2023-05-10T06:59:01;5.33;;;4.40;;
846;SDS011;410;48.954;9.474;2023-05-10T07:01:05;5.43;;;4.87;;
846;SDS011;410;48.954;9.474;2023-05-10T07:03:09;6.93;;;4.87;;
846;SDS011;410;48.954;9.474;2023-05-10T07:05:13;8.00;;;5.17;;
846;SDS011;410;48.954;9.474;2023-05-10T07:07:17;4.80;;;4.30;;
846;SDS011;410;48.954;9.474;2023-05-10T07:09:20;5.17;;;4.43;;
846;SDS011;410;48.954;9.474;2023-05-10T07:11:23;4.47;;;4.07;;
846;SDS011;410;48.954;9.474;2023-05-10T07:13:26;4.10;;;3.60;;
846;SDS011;410;48.954;9.474;2023-05-10T07:15:29;5.87;;;3.80;;
846;SDS011;410;48.954;9.474;2023-05-10T07:17:32;5.00;;;4.00;;
846;SDS011;410;48.954;9.474;2023-05-10T07:19:37;11.43;;;10.20;;
846;SDS011;410;48.954;9.474;2023-05-10T07:21:40;4.93;;;3.90;;
846;SDS011;410;48.954;9.474;2023-05-10T07:23:44;3.97;;;3.57;;
846;SDS011;410;48.954;9.474;2023-05-10T07:25:48;4.40;;;3.83;;
846;SDS011;410;48.954;9.474;2023-05-10T07:27:53;4.40;;;3.47;;
846;SDS011;410;48.954;9.474;2023-05-10T07:29:56;3.77;;;3.10;;
846;SDS011;410;48.954;9.474;2023-05-10T07:32:00;5.00;;;3.33;;
846;SDS011;410;48.954;9.474;2023-05-10T07:34:03;5.70;;;3.30;;
846;SDS011;410;48.954;9.474;2023-05-10T07:36:08;4.67;;;4.00;;
846;SDS011;410;48.954;9.474;2023-05-10T07:38:11;3.80;;;3.10;;
846;SDS011;410;48.954;9.474;2023-05-10T07:40:14;3.93;;;3.47;;
846;SDS011;410;48.954;9.474;2023-05-10T07:42:18;3.43;;;3.00;;
846;SDS011;410;48.954;9.474;2023-05-10T07:44:21;3.07;;;2.57;;
846;SDS011;410;48.954;9.474;2023-05-10T07:46:24;3.00;;;2.60;;
846;SDS011;410;48.954;9.474;2023-05-10T07:48:27;5.07;;;2.90;;
846;SDS011;410;48.954;9.474;2023-05-10T07:50:31;4.47;;;2.73;;
846;SDS011;410;48.954;9.474;2023-05-10T07:52:35;3.23;;;2.60;;
846;SDS011;410;48.954;9.474;2023-05-10T07:54:39;4.30;;;3.13;;
846;SDS011;410;48.954;9.474;2023-05-10T07:56:42;3.30;;;2.60;;
846;SDS011;410;48.954;9.474;2023-05-10T07:58:47;2.60;;;2.40;;
846;SDS011;410;48.954;9.474;2023-05-10T08:00:50;3.77;;;2.73;;
846;SDS011;410;48.954;9.474;2023-05-10T08:02:53;4.10;;;2.70;;
846;SDS011;410;48.954;9.474;2023-05-10T08:04:57;3.60;;;3.00;;
846;SDS011;410;48.954;9.474;2023-05-10T08:07:00;3.10;;;2.60;;
846;SDS011;410;48.954;9.474;2023-05-10T08:09:04;5.10;;;2.37;;
846;SDS011;410;48.954;9.474;2023-05-10T08:11:07;2.60;;;2.20;;
846;SDS011;410;48.954;9.474;2023-05-10T08:13:11;3.77;;;2.53;;
846;SDS011;410;48.954;9.474;2023-05-10T08:15:14;3.20;;;2.67;;
846;SDS011;410;48.954;9.474;2023-05-10T08:17:17;3.33;;;2.40;;
846;SDS011;410;48.954;9.474;2023-05-10T08:19:23;4.00;;;2.10;;
846;SDS011;410;48.954;9.474;2023-05-10T08:21:26;2.70;;;2.37;;
846;SDS011;410;48.954;9.474;2023-05-10T08:23:29;3.63;;;3.07;;
846;SDS011;410;48.954;9.474;2023-05-10T08:25:34;3.87;;;2.10;;
846;SDS011;410;48.954;9.474;2023-05-10T08:27:37;2.40;;;2.10;;
846;SDS011;410;48.954;9.474;2023-05-10T08:29:40;2.70;;;2.00;;
846;SDS011;410;48.954;9.474;2023-05-10T08:31:51;2.40;;;1.87;;
846;SDS011;410;48.954;9.474;2023-05-10T08:33:54;2.47;;;1.90;;
846;SDS011;410;48.954;9.474;2023-05-10T08:35:57;12.30;;;7.43;;
846;SDS011;410;48.954;9.474;2023-05-10T08:38:00;2.70;;;2.10;;
846;SDS011;410;48.954;9.474;2023-05-10T08:40:04;2.30;;;1.70;;
846;SDS011;410;48.954;9.474;2023-05-10T08:42:09;2.13;;;1.57;;
846;SDS011;410;48.954;9.474;2023-05-10T08:44:12;2.17;;;1.77;;
846;SDS011;410;48.954;9.474;2023-05-10T08:46:17;2.53;;;1.63;;
846;SDS011;410;48.954;9.474;2023-05-10T08:48:20;2.60;;;1.67;;
846;SDS011;410;48.954;9.474;2023-05-10T08:50:25;2.80;;;2.10;;
846;SDS011;410;48.954;9.474;2023-05-10T08:52:28;2.17;;;1.63;;
846;SDS011;410;48.954;9.474;2023-05-10T08:54:33;3.70;;;1.37;;
846;SDS011;410;48.954;9.474;2023-05-10T08:56:36;2.33;;;1.23;;
846;SDS011;410;48.954;9.474;2023-05-10T08:58:41;2.40;;;1.30;;
846;SDS011;410;48.954;9.474;2023-05-10T09:00:44;2.30;;;1.13;;
846;SDS011;410;48.954;9.474;2023-05-10T09:02:48;1.50;;;1.00;;
846;SDS011;410;48.954;9.474;2023-05-10T09:04:52;1.57;;;1.00;;
846;SDS011;410;48.954;9.474;2023-05-10T09:06:55;3.57;;;1.70;;
846;SDS011;410;48.954;9.474;2023-05-10T09:08:59;2.00;;;1.20;;
846;SDS011;410;48.954;9.474;2023-05-10T09:11:04;1.60;;;1.13;;
846;SDS011;410;48.954;9.474;2023-05-10T09:13:08;2.90;;;1.37;;
846;SDS011;410;48.954;9.474;2023-05-10T09:15:14;1.50;;;0.90;;
846;SDS011;410;48.954;9.474;2023-05-10T09:17:20;1.23;;;0.80;;
846;SDS011;410;48.954;9.474;2023-05-10T09:19:25;1.30;;;0.80;;
846;SDS011;410;48.954;9.474;2023-05-10T09:21:28;1.57;;;1.00;;
846;SDS011;410;48.954;9.474;2023-05-10T09:23:32;1.83;;;0.90;;
846;SDS011;410;48.954;9.474;2023-05-10T09:25:35;1.40;;;0.90;;
846;SDS011;410;48.954;9.474;2023-05-10T09:27:41;1.47;;;0.97;;
846;SDS011;410;48.954;9.474;2023-05-10T09:29:46;1.60;;;1.20;;
846;SDS011;410;48.954;9.474;2023-05-10T09:31:51;1.93;;;1.20;;
846;SDS011;410;48.954;9.474;2023-05-10T09:33:56;2.30;;;1.10;;
846;SDS011;410;48.954;9.474;2023-05-10T09:36:06;1.97;;;1.10;;
846;SDS011;410;48.954;9.474;2023-05-10T09:38:09;2.73;;;1.20;;
846;SDS011;410;48.954;9.474;2023-05-10T09:40:13;1.47;;;1.07;;
846;SDS011;410;48.954;9.474;2023-05-10T09:42:17;1.70;;;1.13;;
846;SDS011;410;48.954;9.474;2023-05-10T09:44:21;1.90;;;1.00;;
846;SDS011;410;48.954;9.474;2023-05-10T09:46:24;1.80;;;1.00;;
846;SDS011;410;48.954;9.474;2023-05-10T09:48:29;1.80;;;1.13;;
846;SDS011;410;48.954;9.474;2023-05-10T09:50:32;2.57;;;1.23;;
846;SDS011;410;48.954;9.474;2023-05-10T09:54:59;2.30;;;1.10;;
846;SDS011;410;48.954;9.474;2023-05-10T09:57:02;1.90;;;1.10;;
846;SDS011;410;48.954;9.474;2023-05-10T09:59:06;3.63;;;0.90;;
846;SDS011;410;48.954;9.474;2023-05-10T10:01:10;1.87;;;1.13;;
846;SDS011;410;48.954;9.474;2023-05-10T10:03:14;2.80;;;1.00;;
846;SDS011;410;48.954;9.474;2023-05-10T10:05:19;1.50;;;1.00;;
846;SDS011;410;48.954;9.474;2023-05-10T10:07:23;1.50;;;1.00;;
846;SDS011;410;48.954;9.474;2023-05-10T10:09:27;4.40;;;1.07;;
846;SDS011;410;48.954;9.474;2023-05-10T10:11:30;1.60;;;1.07;;
846;SDS011;410;48.954;9.474;2023-05-10T10:13:34;1.93;;;1.17;;
846;SDS011;410;48.954;9.474;2023-05-10T10:15:37;2.97;;;1.37;;
846;SDS011;410;48.954;9.474;2023-05-10T10:17:41;1.93;;;1.30;;
846;SDS011;410;48.954;9.474;2023-05-10T10:19:46;1.80;;;1.20;;
846;SDS011;410;48.954;9.474;2023-05-10T10:21:52;1.53;;;1.00;;
846;SDS011;410;48.954;9.474;2023-05-10T10:23:55;1.97;;;1.20;;
846;SDS011;410;48.954;9.474;2023-05-10T10:25:58;2.10;;;1.30;;
846;SDS011;410;48.954;9.474;2023-05-10T10:28:11;1.90;;;1.40;;
846;SDS011;410;48.954;9.474;2023-05-10T10:30:22;3.67;;;1.73;;
846;SDS011;410;48.954;9.474;2023-05-10T10:32:30;2.93;;;1.30;;
846;SDS011;410;48.954;9.474;2023-05-10T10:34:40;3.23;;;1.33;;
846;SDS011;410;48.954;9.474;2023-05-10T10:36:45;1.70;;;1.10;;
846;SDS011;410;48.954;9.474;2023-05-10T10:39:00;2.70;;;1.30;;
846;SDS011;410;48.954;9.474;2023-05-10T10:41:09;1.80;;;1.10;;
846;SDS011;410;48.954;9.474;2023-05-10T10:43:22;2.40;;;1.40;;
846;SDS011;410;48.954;9.474;2023-05-10T10:45:27;2.20;;;1.23;;
846;SDS011;410;48.954;9.474;2023-05-10T10:47:30;1.93;;;1.20;;
846;SDS011;410;48.954;9.474;2023-05-10T10:49:38;1.77;;;1.30;;
846;SDS011;410;48.954;9.474;2023-05-10T10:54:21;1.67;;;0.90;;
846;SDS011;410;48.954;9.474;2023-05-10T10:56:32;1.70;;;1.00;;
846;SDS011;410;48.954;9.474;2023-05-10T10:58:38;1.50;;;0.90;;
846;SDS011;410;48.954;9.474;2023-05-10T11:00:42;3.10;;;0.90;;
846;SDS011;410;48.954;9.474;2023-05-10T11:02:47;3.67;;;2.87;;
846;SDS011;410;48.954;9.474;2023-05-10T11:04:53;1.50;;;0.90;;
846;SDS011;410;48.954;9.474;2023-05-10T11:09:21;2.03;;;1.20;;
846;SDS011;410;48.954;9.474;2023-05-10T11:11:27;2.40;;;1.10;;
846;SDS011;410;48.954;9.474;2023-05-10T11:13:32;2.10;;;1.30;;
846;SDS011;410;48.954;9.474;2023-05-10T11:15:36;3.40;;;1.30;;
846;SDS011;410;48.954;9.474;2023-05-10T11:17:40;2.33;;;1.37;;
846;SDS011;410;48.954;9.474;2023-05-10T11:22:13;2.00;;;1.13;;
846;SDS011;410;48.954;9.474;2023-05-10T11:24:17;2.07;;;1.40;;
846;SDS011;410;48.954;9.474;2023-05-10T11:26:22;2.50;;;1.20;;
846;SDS011;410;48.954;9.474;2023-05-10T11:28:27;2.10;;;1.50;;
846;SDS011;410;48.954;9.474;2023-05-10T11:30:30;2.20;;;1.20;;
846;SDS011;410;48.954;9.474;2023-05-10T11:32:33;1.93;;;1.30;;
846;SDS011;410;48.954;9.474;2023-05-10T11:34:39;2.03;;;1.57;;
846;SDS011;410;48.954;9.474;2023-05-10T11:36:42;1.60;;;1.30;;
846;SDS011;410;48.954;9.474;2023-05-10T11:38:46;2.20;;;1.10;;
846;SDS011;410;48.954;9.474;2023-05-10T11:40:51;3.50;;;1.60;;
846;SDS011;410;48.954;9.474;2023-05-10T11:42:56;1.80;;;1.13;;
846;SDS011;410;48.954;9.474;2023-05-10T11:45:00;1.67;;;0.93;;
846;SDS011;410;48.954;9.474;2023-05-10T11:47:04;2.80;;;0.90;;
846;SDS011;410;48.954;9.474;2023-05-10T11:49:08;1.70;;;0.80;;
846;SDS011;410;48.954;9.474;2023-05-10T11:51:11;2.13;;;1.27;;
846;SDS011;410;48.954;9.474;2023-05-10T11:53:14;1.97;;;0.90;;
846;SDS011;410;48.954;9.474;2023-05-10T11:55:18;2.90;;;0.90;;
846;SDS011;410;48.954;9.474;2023-05-10T11:57:25;1.53;;;0.90;;
846;SDS011;410;48.954;9.474;2023-05-10T11:59:30;1.50;;;0.90;;
846;SDS011;410;48.954;9.474;2023-05-10T12:01:34;1.60;;;0.80;;
846;SDS011;410;48.954;9.474;2023-05-10T12:03:37;9.13;;;1.00;;
846;SDS011;410;48.954;9.474;2023-05-10T12:05:41;1.87;;;0.87;;
846;SDS011;410;48.954;9.474;2023-05-10T12:07:44;3.50;;;1.20;;
846;SDS011;410;48.954;9.474;2023-05-10T12:10:02;1.97;;;1.00;;
846;SDS011;410;48.954;9.474;2023-05-10T12:12:06;1.80;;;1.10;;
846;SDS011;410;48.954;9.474;2023-05-10T12:14:09;3.07;;;1.10;;
846;SDS011;410;48.954;9.474;2023-05-10T12:16:14;3.63;;;1.10;;
846;SDS011;410;48.954;9.474;2023-05-10T12:18:22;1.97;;;1.10;;
846;SDS011;410;48.954;9.474;2023-05-10T12:20:27;2.00;;;1.40;;
846;SDS011;410;48.954;9.474;2023-05-10T12:22:33;2.50;;;1.33;;
846;SDS011;410;48.954;9.474;2023-05-10T12:24:36;3.40;;;1.43;;
846;SDS011;410;48.954;9.474;2023-05-10T12:26:40;2.03;;;1.40;;
846;SDS011;410;48.954;9.474;2023-05-10T12:28:43;2.03;;;1.30;;
846;SDS011;410;48.954;9.474;2023-05-10T12:30:46;3.60;;;1.50;;
846;SDS011;410;48.954;9.474;2023-05-10T12:32:51;2.20;;;1.33;;
846;SDS011;410;48.954;9.474;2023-05-10T12:34:55;2.00;;;1.47;;
846;SDS011;410;48.954;9.474;2023-05-10T12:37:00;2.67;;;1.40;;
846;SDS011;410;48.954;9.474;2023-05-10T12:39:04;2.80;;;1.40;;
846;SDS011;410;48.954;9.474;2023-05-10T12:41:08;5.60;;;1.33;;
846;SDS011;410;48.954;9.474;2023-05-10T12:43:13;1.87;;;1.30;;
846;SDS011;410;48.954;9.474;2023-05-10T12:45:17;2.30;;;1.40;;
846;SDS011;410;48.954;9.474;2023-05-10T12:47:20;1.93;;;1.33;;
846;SDS011;410;48.954;9.474;2023-05-10T12:49:25;2.70;;;1.83;;
846;SDS011;410;48.954;9.474;2023-05-10T12:51:28;2.23;;;1.60;;
846;SDS011;410;48.954;9.474;2023-05-10T12:53:32;3.10;;;1.40;;
846;SDS011;410;48.954;9.474;2023-05-10T12:55:35;3.43;;;1.40;;
846;SDS011;410;48.954;9.474;2023-05-10T12:57:38;2.30;;;1.60;;
846;SDS011;410;48.954;9.474;2023-05-10T12:59:41;2.40;;;1.53;;
846;SDS011;410;48.954;9.474;2023-05-10T13:01:44;2.00;;;1.40;;
846;SDS011;410;48.954;9.474;2023-05-10T13:03:47;3.70;;;1.90;;
846;SDS011;410;48.954;9.474;2023-05-10T13:05:51;3.10;;;1.87;;
846;SDS011;410;48.954;9.474;2023-05-10T13:07:54;2.60;;;1.80;;
846;SDS011;410;48.954;9.474;2023-05-10T13:09:57;2.87;;;2.10;;
846;SDS011;410;48.954;9.474;2023-05-10T13:12:00;2.67;;;2.00;;
846;SDS011;410;48.954;9.474;2023-05-10T13:14:03;4.27;;;1.90;;
846;SDS011;410;48.954;9.474;2023-05-10T13:16:07;10.87;;;2.87;;
846;SDS011;410;48.954;9.474;2023-05-10T13:18:10;3.37;;;1.77;;
846;SDS011;410;48.954;9.474;2023-05-10T13:20:13;2.80;;;1.77;;
846;SDS011;410;48.954;9.474;2023-05-10T13:22:18;2.40;;;1.40;;
846;SDS011;410;48.954;9.474;2023-05-10T13:24:39;3.53;;;2.10;;
846;SDS011;410;48.954;9.474;2023-05-10T13:26:43;1.93;;;1.40;;
846;SDS011;410;48.954;9.474;2023-05-10T13:28:46;2.40;;;1.30;;
846;SDS011;410;48.954;9.474;2023-05-10T13:30:50;2.57;;;1.47;;